Time;durP1;ratioP1;P1;durP2;ratioP2;P2;SDS_P1;SDS_P2;PMS_P1;PMS_P2;Temp;Humidity;BMP_temperature;BMP_pressure;BME280_temperature;BME280_humidity;BME280_pressure;Samples;Min_cycle;Max_cycle;Signal;HPM_P1;HPM_P2
2021/07/31 00:04:40;;;;;;;12.37;7.97;;;17.20;99.90;;;;;;20830232;28;20079;-75
2021/07/31 00:14:40;;;;;;;14.20;7.77;;;17.20;99.90;;;;;;20838766;28;20029;-74
2021/07/31 00:24:41;;;;;;;10.30;6.87;;;17.20;99.90;;;;;;20837748;28;20120;-75
2021/07/31 00:34:42;;;;;;;25.13;8.33;;;17.10;99.90;;;;;;20837225;28;20033;-75
2021/07/31 00:44:43;;;;;;;12.03;7.67;;;17.20;99.90;;;;;;20818777;28;20151;-75
2021/07/31 00:54:44;;;;;;;14.10;7.67;;;17.20;99.90;;;;;;20818193;28;20400;-74
2021/07/31 01:04:47;;;;;;;12.75;8.23;;;17.20;99.90;;;;;;20816647;28;20124;-75
2021/07/31 01:14:47;;;;;;;14.37;7.73;;;17.00;99.90;;;;;;20834063;28;20036;-74
2021/07/31 01:24:48;;;;;;;13.07;8.77;;;17.10;99.90;;;;;;20815461;28;20029;-74
2021/07/31 01:34:50;;;;;;;21.15;8.13;;;16.90;99.90;;;;;;20815334;28;20033;-74
2021/07/31 01:44:51;;;;;;;;;;;16.80;99.90;;;;;;20815343;28;20037;-74
2021/07/31 01:54:53;;;;;;;12.95;8.80;;;16.80;99.90;;;;;;20809594;28;19970;-74
2021/07/31 02:04:54;;;;;;;13.48;7.43;;;16.70;99.90;;;;;;20813744;28;20432;-75
2021/07/31 02:14:59;;;;;;;15.95;8.35;;;16.80;99.90;;;;;;20804391;28;20037;-74
2021/07/31 02:25:03;;;;;;;25.42;10.90;;;16.90;99.90;;;;;;20821509;28;20025;-75
2021/07/31 02:35:22;;;;;;;42.42;10.93;;;16.80;99.90;;;;;;20910508;28;20049;-74
2021/07/31 02:45:46;;;;;;;23.42;10.77;;;16.80;99.90;;;;;;20909707;28;20040;-74
2021/07/31 02:55:47;;;;;;;19.65;10.52;;;16.90;99.90;;;;;;20891284;28;20079;-75
2021/07/31 03:05:57;;;;;;;29.55;11.00;;;16.80;99.90;;;;;;20890080;28;20041;-75
2021/07/31 03:16:00;;;;;;;14.82;9.77;;;16.60;99.90;;;;;;20889992;28;20025;-74
2021/07/31 03:26:01;;;;;;;14.13;9.17;;;16.50;99.90;;;;;;20907433;28;20171;-74
2021/07/31 03:36:02;;;;;;;20.37;8.33;;;16.50;99.90;;;;;;20890313;28;20036;-74
2021/07/31 03:46:12;;;;;;;14.18;7.75;;;16.40;99.90;;;;;;20923390;28;20025;-75
2021/07/31 03:56:14;;;;;;;11.82;6.65;;;16.20;99.90;;;;;;20904538;28;20067;-75
2021/07/31 04:06:19;;;;;;;17.45;7.68;;;16.20;99.90;;;;;;20903730;28;20123;-73
2021/07/31 04:16:23;;;;;;;13.68;7.32;;;15.90;99.90;;;;;;20921213;28;20059;-74
2021/07/31 04:26:24;;;;;;;15.90;8.03;;;15.80;99.90;;;;;;20902375;28;20029;-74
2021/07/31 04:36:25;;;;;;;23.07;9.53;;;15.60;99.90;;;;;;20919403;28;20275;-75
2021/07/31 04:46:26;;;;;;;33.63;10.60;;;15.80;99.90;;;;;;20900294;28;20098;-74
2021/07/31 04:56:27;;;;;;;12.37;7.83;;;15.70;99.90;;;;;;20918085;28;20623;-75
2021/07/31 05:06:29;;;;;;;19.67;8.60;;;15.90;99.90;;;;;;20916006;28;20079;-74
2021/07/31 05:16:30;;;;;;;15.20;7.70;;;16.00;99.90;;;;;;20916322;28;20029;-75
2021/07/31 05:26:31;;;;;;;12.57;7.77;;;16.30;99.90;;;;;;20915862;28;20040;-74
2021/07/31 05:36:35;;;;;;;13.10;7.70;;;16.50;99.90;;;;;;20897391;28;20400;-74
2021/07/31 05:46:35;;;;;;;15.05;8.52;;;16.70;99.90;;;;;;20914564;28;20029;-74
2021/07/31 05:56:36;;;;;;;13.13;7.80;;;16.80;99.90;;;;;;20913035;28;20107;-75
2021/07/31 06:06:37;;;;;;;20.67;8.87;;;17.00;99.90;;;;;;20911839;28;20084;-74
2021/07/31 06:16:38;;;;;;;18.53;8.97;;;17.10;99.90;;;;;;20911873;28;20021;-74
2021/07/31 06:26:39;;;;;;;12.33;7.67;;;17.50;99.90;;;;;;20905604;28;20017;-74
2021/07/31 06:36:42;;;;;;;10.60;6.30;;;17.50;99.90;;;;;;20826926;28;20029;-74
2021/07/31 06:46:43;;;;;;;9.80;6.32;;;17.70;99.90;;;;;;20807500;28;20033;-74
2021/07/31 06:56:44;;;;;;;14.97;5.20;;;17.80;99.90;;;;;;20824999;28;20430;-74
2021/07/31 07:06:44;;;;;;;8.23;4.13;;;17.80;99.90;;;;;;20859872;28;20037;-74
2021/07/31 07:16:45;;;;;;;6.90;2.70;;;18.10;99.90;;;;;;20828005;28;20140;-74
2021/07/31 07:26:46;;;;;;;7.47;2.60;;;18.70;99.90;;;;;;20824612;28;20057;-74
2021/07/31 07:36:47;;;;;;;7.03;2.37;;;19.20;99.90;;;;;;20806474;28;20519;-74
2021/07/31 07:46:48;;;;;;;5.07;1.93;;;19.30;99.90;;;;;;20823774;28;20049;-74
2021/07/31 07:56:48;;;;;;;5.40;1.40;;;19.70;99.90;;;;;;20857708;28;20028;-75
2021/07/31 08:06:49;;;;;;;5.13;1.90;;;20.30;99.90;;;;;;20859572;28;20563;-75
2021/07/31 08:16:50;;;;;;;6.00;1.47;;;20.90;99.90;;;;;;20864947;28;20028;-74
2021/07/31 08:26:51;;;;;;;3.60;1.60;;;20.90;99.90;;;;;;20869798;28;20111;-74
2021/07/31 08:36:52;;;;;;;8.00;2.37;;;20.90;99.90;;;;;;20864597;28;20503;-73
2021/07/31 08:46:53;;;;;;;7.40;2.10;;;20.00;99.90;;;;;;20856926;28;20480;-73
2021/07/31 08:56:54;;;;;;;;;;;20.30;99.90;;;;;;20829738;28;20029;-75
2021/07/31 09:06:55;;;;;;;4.43;1.70;;;20.20;99.90;;;;;;20805833;28;19948;-75
2021/07/31 09:16:57;;;;;;;7.73;2.00;;;20.80;99.90;;;;;;20849335;28;20170;-75
2021/07/31 09:26:58;;;;;;;;;;;21.20;99.90;;;;;;20848845;28;20040;-74
2021/07/31 09:37:27;;;;;;;5.97;1.30;;;20.90;99.90;;;;;;20793969;28;19913;-74
2021/07/31 09:47:28;;;;;;;6.25;1.45;;;20.60;99.90;;;;;;20878451;28;20034;-74
2021/07/31 09:57:30;;;;;;;11.40;2.83;;;22.10;99.90;;;;;;20813261;28;20026;-74
2021/07/31 10:07:31;;;;;;;4.20;1.40;;;23.50;99.90;;;;;;20807765;28;20026;-75
2021/07/31 10:17:33;;;;;;;4.05;1.15;;;24.00;99.90;;;;;;20820762;28;20568;-75
2021/07/31 10:27:35;;;;;;;6.25;1.30;;;24.20;99.90;;;;;;20791377;28;20025;-75
2021/07/31 10:37:35;;;;;;;6.13;1.42;;;23.90;99.90;;;;;;20805639;28;20033;-76
2021/07/31 10:47:36;;;;;;;4.67;1.20;;;24.30;99.90;;;;;;20812652;28;20033;-75
2021/07/31 10:57:58;;;;;;;6.13;1.50;;;23.60;99.90;;;;;;20838108;28;20361;-75
2021/07/31 11:08:02;;;;;;;5.22;1.05;;;23.90;99.90;;;;;;20780706;28;20416;-75
2021/07/31 11:18:03;;;;;;;4.57;1.65;;;22.20;99.90;;;;;;20812559;28;20041;-73
2021/07/31 11:28:09;;;;;;;2.70;1.27;;;21.90;99.90;;;;;;20831929;28;20403;-73
2021/07/31 11:38:41;;;;;;;6.18;1.45;;;23.30;99.90;;;;;;20740229;28;20392;-73
2021/07/31 11:48:46;;;;;;;3.85;1.42;;;23.50;99.90;;;;;;20783379;28;20096;-75
2021/07/31 11:58:50;;;;;;;9.68;2.05;;;24.00;99.90;;;;;;20804532;28;20035;-73
2021/07/31 12:08:50;;;;;;;4.68;1.38;;;23.40;99.90;;;;;;20798993;28;20061;-74
2021/07/31 12:18:52;;;;;;;6.80;1.20;;;24.40;99.90;;;;;;20837984;28;20030;-75
2021/07/31 12:28:55;;;;;;;3.65;1.25;;;24.80;99.90;;;;;;20811922;28;20280;-73
2021/07/31 12:38:57;;;;;;;4.50;1.10;;;25.00;99.90;;;;;;20809719;28;20609;-73
2021/07/31 12:48:58;;;;;;;6.18;1.08;;;24.70;99.90;;;;;;20794036;28;20091;-74
2021/07/31 12:58:59;;;;;;;4.33;1.27;;;23.80;99.90;;;;;;20790762;28;20423;-74
2021/07/31 13:08:59;;;;;;;7.40;1.67;;;23.30;99.90;;;;;;20809975;28;20488;-74
2021/07/31 13:19:00;;;;;;;4.90;1.50;;;22.60;99.90;;;;;;20804377;28;20887;-74
2021/07/31 13:29:01;;;;;;;5.80;1.50;;;23.10;99.90;;;;;;20789992;28;20222;-73
2021/07/31 13:39:02;;;;;;;6.03;1.27;;;24.00;99.90;;;;;;20770019;28;20048;-73
2021/07/31 13:49:03;;;;;;;2.80;1.10;;;23.90;99.90;;;;;;20808001;28;20087;-73
2021/07/31 13:59:04;;;;;;;5.13;1.13;;;23.20;99.90;;;;;;20808936;28;20037;-74
2021/07/31 14:09:04;;;;;;;6.50;2.10;;;23.20;99.90;;;;;;20806869;28;20072;-74
2021/07/31 14:19:05;;;;;;;6.27;1.33;;;23.50;99.90;;;;;;20860440;28;20029;-75
2021/07/31 14:29:08;;;;;;;2.97;1.13;;;24.10;99.90;;;;;;20887272;28;20037;-75
2021/07/31 14:39:09;;;;;;;2.85;1.33;;;24.40;99.90;;;;;;20848466;28;20038;-75
2021/07/31 14:49:10;;;;;;;5.30;1.17;;;23.60;99.90;;;;;;20787125;28;20435;-73
2021/07/31 14:59:10;;;;;;;2.93;1.00;;;24.10;99.90;;;;;;20803603;28;20056;-74
2021/07/31 15:09:11;;;;;;;3.87;1.13;;;24.70;99.90;;;;;;20786311;28;20069;-74
2021/07/31 15:19:12;;;;;;;3.63;1.40;;;24.10;99.90;;;;;;20858626;28;20283;-74
2021/07/31 15:29:13;;;;;;;4.30;1.33;;;23.30;99.90;;;;;;20885166;28;20029;-75
2021/07/31 15:39:14;;;;;;;7.57;1.73;;;22.70;99.90;;;;;;20878821;28;20068;-73
2021/07/31 15:49:15;;;;;;;4.87;1.10;;;23.00;99.90;;;;;;20819287;28;20037;-74
2021/07/31 15:59:15;;;;;;;6.00;1.60;;;22.30;99.90;;;;;;20818463;28;20091;-74
2021/07/31 16:09:16;;;;;;;4.70;1.60;;;22.00;99.90;;;;;;20817292;28;20037;-74
2021/07/31 16:19:17;;;;;;;5.17;1.33;;;21.80;99.90;;;;;;20854512;28;20051;-75
2021/07/31 16:29:18;;;;;;;55.10;16.43;;;21.80;99.90;;;;;;20880717;28;20136;-75
2021/07/31 16:39:19;;;;;;;8.30;2.27;;;22.10;99.90;;;;;;20874544;28;20037;-74
2021/07/31 16:49:19;;;;;;;5.43;2.13;;;22.00;99.90;;;;;;20813718;28;20119;-74
2021/07/31 16:59:20;;;;;;;11.80;3.23;;;21.80;99.90;;;;;;20813729;28;20618;-76
2021/07/31 17:09:21;;;;;;;2.27;1.20;;;21.80;99.90;;;;;;20812078;28;20033;-74
2021/07/31 17:19:22;;;;;;;6.67;1.43;;;21.30;99.90;;;;;;20851232;28;20044;-74
2021/07/31 17:29:23;;;;;;;7.07;1.50;;;21.00;99.90;;;;;;20818627;28;20037;-74
2021/07/31 17:39:24;;;;;;;6.13;2.00;;;21.00;99.90;;;;;;20809695;28;20036;-76
2021/07/31 17:49:24;;;;;;;5.97;2.63;;;21.10;99.90;;;;;;20808968;28;20044;-74
2021/07/31 17:59:25;;;;;;;5.50;2.30;;;20.90;99.90;;;;;;20789239;28;20045;-74
2021/07/31 18:09:26;;;;;;;15.90;6.23;;;20.70;99.90;;;;;;20808692;28;20650;-74
2021/07/31 18:19:27;;;;;;;13.50;5.97;;;20.80;99.90;;;;;;20864584;28;20025;-74
2021/07/31 18:29:29;;;;;;;4.70;2.00;;;20.40;99.90;;;;;;20888785;28;20029;-76
2021/07/31 18:39:30;;;;;;;10.48;4.68;;;20.20;99.90;;;;;;20887883;28;20044;-74
2021/07/31 18:49:30;;;;;;;4.00;2.40;;;20.20;99.90;;;;;;20864122;28;20400;-74
2021/07/31 18:59:33;;;;;;;8.43;2.73;;;20.20;99.90;;;;;;20804260;28;20522;-75
2021/07/31 19:09:35;;;;;;;8.73;2.90;;;20.00;99.90;;;;;;20803010;28;20037;-73
2021/07/31 19:19:36;;;;;;;10.80;3.00;;;19.60;99.90;;;;;;20862642;28;20029;-74
2021/07/31 19:29:37;;;;;;;;;;;19.50;99.90;;;;;;20887201;28;20042;-74
2021/07/31 19:39:38;;;;;;;5.80;2.73;;;19.20;99.90;;;;;;20859671;28;19921;-75
2021/07/31 19:49:38;;;;;;;9.03;2.60;;;19.10;99.90;;;;;;20802509;28;20095;-75
2021/07/31 19:59:41;;;;;;;13.70;3.45;;;19.10;99.90;;;;;;20801867;28;20140;-75
2021/07/31 20:09:42;;;;;;;8.10;2.83;;;18.80;99.90;;;;;;20801943;28;20045;-75
2021/07/31 20:19:43;;;;;;;7.93;3.35;;;18.80;99.90;;;;;;20864608;28;20039;-75
2021/07/31 20:29:44;;;;;;;10.27;3.80;;;17.90;99.90;;;;;;20880854;28;20104;-75
2021/07/31 20:39:45;;;;;;;6.77;3.90;;;18.20;99.90;;;;;;20872099;28;20029;-75
2021/07/31 20:49:46;;;;;;;6.63;3.90;;;18.20;99.90;;;;;;20832114;22;20072;-80
2021/07/31 20:59:47;;;;;;;13.50;4.57;;;17.80;99.90;;;;;;20756135;28;20092;-80
2021/07/31 21:09:47;;;;;;;8.37;3.80;;;17.90;99.90;;;;;;20706211;28;20500;-81
2021/07/31 21:19:48;;;;;;;13.40;5.20;;;18.00;99.90;;;;;;20788966;28;20446;-80
2021/07/31 21:29:49;;;;;;;12.23;6.53;;;17.30;99.90;;;;;;20826628;28;20396;-81
2021/07/31 21:39:50;;;;;;;17.60;9.57;;;16.80;99.90;;;;;;20782765;28;20089;-81
2021/07/31 21:49:51;;;;;;;19.37;12.37;;;16.30;99.90;;;;;;20751728;28;20507;-80
2021/07/31 21:59:58;;;;;;;25.43;13.80;;;16.00;99.90;;;;;;20743453;28;20060;-80
2021/07/31 22:09:59;;;;;;;19.73;11.52;;;15.80;99.90;;;;;;20724179;28;20060;-80
2021/07/31 22:20:00;;;;;;;22.77;11.23;;;15.80;99.90;;;;;;20783770;28;20800;-80
2021/07/31 22:30:01;;;;;;;18.60;9.07;;;15.70;99.90;;;;;;20804252;28;20563;-79
2021/07/31 22:40:02;;;;;;;16.17;7.97;;;15.60;99.90;;;;;;20788429;28;20095;-79
2021/07/31 22:50:05;;;;;;;17.58;7.93;;;15.50;99.90;;;;;;20735660;28;20037;-79
2021/07/31 23:00:07;;;;;;;14.00;7.45;;;15.50;99.90;;;;;;20717148;28;20034;-78
2021/07/31 23:10:08;;;;;;;12.20;7.60;;;15.40;99.90;;;;;;20730249;28;20133;-77
2021/07/31 23:20:10;;;;;;;14.90;7.43;;;15.10;99.90;;;;;;20750377;28;20380;-78
2021/07/31 23:30:11;;;;;;;16.70;7.60;;;15.10;99.90;;;;;;20729310;28;20095;-79
2021/07/31 23:40:12;;;;;;;13.43;7.20;;;15.10;99.90;;;;;;20734727;28;20029;-80
2021/07/31 23:50:13;;;;;;;11.27;6.60;;;15.10;99.90;;;;;;20702818;28;20591;-79
